sensor_id;sensor_type;location;lat;lon;timestamp;P1;durP1;ratioP1;P2;durP2;ratioP2
70416;SDS011;57839;51.332;12.410;2023-02-03T00:01:39;7.78;;;2.75;;
70416;SDS011;57839;51.332;12.410;2023-02-03T00:04:04;4.40;;;2.42;;
70416;SDS011;57839;51.332;12.410;2023-02-03T00:06:30;6.68;;;2.45;;
70416;SDS011;57839;51.332;12.410;2023-02-03T00:08:56;6.07;;;3.00;;
70416;SDS011;57839;51.332;12.410;2023-02-03T00:11:23;6.05;;;3.20;;
70416;SDS011;57839;51.332;12.410;2023-02-03T00:13:49;5.72;;;2.80;;
70416;SDS011;57839;51.332;12.410;2023-02-03T00:16:15;8.55;;;3.42;;
70416;SDS011;57839;51.332;12.410;2023-02-03T00:18:41;5.63;;;3.30;;
70416;SDS011;57839;51.332;12.410;2023-02-03T00:21:06;5.65;;;3.05;;
70416;SDS011;57839;51.332;12.410;2023-02-03T00:23:32;5.00;;;2.47;;
70416;SDS011;57839;51.332;12.410;2023-02-03T00:26:07;4.22;;;2.55;;
70416;SDS011;57839;51.332;12.410;2023-02-03T00:28:34;5.00;;;2.33;;
70416;SDS011;57839;51.332;12.410;2023-02-03T00:31:00;3.92;;;2.20;;
70416;SDS011;57839;51.332;12.410;2023-02-03T00:33:26;6.53;;;2.47;;
70416;SDS011;57839;51.332;12.410;2023-02-03T00:35:51;6.47;;;2.35;;
70416;SDS011;57839;51.332;12.410;2023-02-03T00:38:17;4.60;;;2.30;;
70416;SDS011;57839;51.332;12.410;2023-02-03T00:40:50;5.43;;;3.20;;
70416;SDS011;57839;51.332;12.410;2023-02-03T00:43:17;6.70;;;2.55;;
70416;SDS011;57839;51.332;12.410;2023-02-03T00:45:43;3.92;;;2.38;;
70416;SDS011;57839;51.332;12.410;2023-02-03T00:48:09;6.60;;;2.47;;
70416;SDS011;57839;51.332;12.410;2023-02-03T00:50:34;5.70;;;2.25;;
70416;SDS011;57839;51.332;12.410;2023-02-03T00:53:00;4.25;;;1.95;;
70416;SDS011;57839;51.332;12.410;2023-02-03T00:55:25;4.07;;;2.35;;
70416;SDS011;57839;51.332;12.410;2023-02-03T00:57:51;3.30;;;2.20;;
70416;SDS011;57839;51.332;12.410;2023-02-03T01:00:17;5.35;;;2.78;;
70416;SDS011;57839;51.332;12.410;2023-02-03T01:02:43;6.63;;;2.45;;
70416;SDS011;57839;51.332;12.410;2023-02-03T01:05:09;4.85;;;2.40;;
70416;SDS011;57839;51.332;12.410;2023-02-03T01:07:35;4.03;;;2.60;;
70416;SDS011;57839;51.332;12.410;2023-02-03T01:10:00;4.72;;;2.40;;
70416;SDS011;57839;51.332;12.410;2023-02-03T01:12:28;5.55;;;2.50;;
70416;SDS011;57839;51.332;12.410;2023-02-03T01:14:54;4.32;;;2.70;;
70416;SDS011;57839;51.332;12.410;2023-02-03T01:17:20;4.18;;;2.67;;
70416;SDS011;57839;51.332;12.410;2023-02-03T01:19:45;3.60;;;2.63;;
70416;SDS011;57839;51.332;12.410;2023-02-03T01:22:11;6.18;;;2.83;;
70416;SDS011;57839;51.332;12.410;2023-02-03T01:24:36;6.68;;;3.03;;
70416;SDS011;57839;51.332;12.410;2023-02-03T01:27:02;4.18;;;3.17;;
70416;SDS011;57839;51.332;12.410;2023-02-03T01:29:28;5.43;;;3.28;;
70416;SDS011;57839;51.332;12.410;2023-02-03T01:31:53;5.78;;;3.67;;
70416;SDS011;57839;51.332;12.410;2023-02-03T01:34:19;5.18;;;3.40;;
70416;SDS011;57839;51.332;12.410;2023-02-03T01:36:44;6.72;;;4.22;;
70416;SDS011;57839;51.332;12.410;2023-02-03T01:39:11;4.85;;;3.65;;
70416;SDS011;57839;51.332;12.410;2023-02-03T01:41:37;5.43;;;3.65;;
70416;SDS011;57839;51.332;12.410;2023-02-03T01:47:12;5.70;;;4.65;;
70416;SDS011;57839;51.332;12.410;2023-02-03T01:49:41;6.55;;;4.50;;
70416;SDS011;57839;51.332;12.410;2023-02-03T01:52:09;7.70;;;4.53;;
70416;SDS011;57839;51.332;12.410;2023-02-03T01:54:37;8.90;;;4.90;;
70416;SDS011;57839;51.332;12.410;2023-02-03T01:57:05;8.13;;;4.72;;
70416;SDS011;57839;51.332;12.410;2023-02-03T01:59:35;6.97;;;4.63;;
70416;SDS011;57839;51.332;12.410;2023-02-03T02:02:01;6.53;;;4.70;;
70416;SDS011;57839;51.332;12.410;2023-02-03T02:04:30;8.90;;;5.15;;
70416;SDS011;57839;51.332;12.410;2023-02-03T02:07:13;7.30;;;5.43;;
70416;SDS011;57839;51.332;12.410;2023-02-03T02:09:39;6.82;;;4.88;;
70416;SDS011;57839;51.332;12.410;2023-02-03T02:12:04;7.03;;;5.55;;
70416;SDS011;57839;51.332;12.410;2023-02-03T02:14:30;8.70;;;5.80;;
70416;SDS011;57839;51.332;12.410;2023-02-03T02:17:12;8.70;;;6.18;;
70416;SDS011;57839;51.332;12.410;2023-02-03T02:23:04;13.20;;;6.95;;
70416;SDS011;57839;51.332;12.410;2023-02-03T02:31:05;14.48;;;8.60;;
70416;SDS011;57839;51.332;12.410;2023-02-03T02:34:19;14.10;;;8.73;;
70416;SDS011;57839;51.332;12.410;2023-02-03T02:37:03;12.45;;;8.60;;
70416;SDS011;57839;51.332;12.410;2023-02-03T02:40:04;14.90;;;8.93;;
70416;SDS011;57839;51.332;12.410;2023-02-03T02:42:51;14.13;;;8.65;;
70416;SDS011;57839;51.332;12.410;2023-02-03T02:48:26;14.55;;;9.88;;
70416;SDS011;57839;51.332;12.410;2023-02-03T02:50:56;20.75;;;10.80;;
70416;SDS011;57839;51.332;12.410;2023-02-03T02:53:23;18.45;;;11.00;;
70416;SDS011;57839;51.332;12.410;2023-02-03T02:55:51;18.15;;;11.25;;
70416;SDS011;57839;51.332;12.410;2023-02-03T02:58:18;22.23;;;12.70;;
70416;SDS011;57839;51.332;12.410;2023-02-03T03:00:44;23.92;;;13.00;;
70416;SDS011;57839;51.332;12.410;2023-02-03T03:05:47;22.23;;;13.65;;
70416;SDS011;57839;51.332;12.410;2023-02-03T03:08:15;25.42;;;14.55;;
70416;SDS011;57839;51.332;12.410;2023-02-03T03:10:42;23.60;;;14.18;;
70416;SDS011;57839;51.332;12.410;2023-02-03T03:13:08;25.17;;;13.75;;
70416;SDS011;57839;51.332;12.410;2023-02-03T03:15:46;25.90;;;14.50;;
70416;SDS011;57839;51.332;12.410;2023-02-03T03:18:15;26.38;;;13.95;;
70416;SDS011;57839;51.332;12.410;2023-02-03T03:21:02;22.77;;;13.07;;
70416;SDS011;57839;51.332;12.410;2023-02-03T03:23:37;79.57;;;41.50;;
70416;SDS011;57839;51.332;12.410;2023-02-03T03:28:53;27.08;;;13.63;;
70416;SDS011;57839;51.332;12.410;2023-02-03T03:31:25;22.77;;;13.07;;
70416;SDS011;57839;51.332;12.410;2023-02-03T03:33:51;24.90;;;13.45;;
70416;SDS011;57839;51.332;12.410;2023-02-03T03:36:27;23.85;;;12.90;;
70416;SDS011;57839;51.332;12.410;2023-02-03T03:42:00;23.73;;;12.37;;
70416;SDS011;57839;51.332;12.410;2023-02-03T03:44:32;23.10;;;13.70;;
70416;SDS011;57839;51.332;12.410;2023-02-03T03:47:13;60.13;;;34.50;;
70416;SDS011;57839;51.332;12.410;2023-02-03T03:49:43;24.90;;;14.48;;
70416;SDS011;57839;51.332;12.410;2023-02-03T03:52:10;23.52;;;13.32;;
70416;SDS011;57839;51.332;12.410;2023-02-03T03:54:40;22.40;;;11.35;;
70416;SDS011;57839;51.332;12.410;2023-02-03T03:57:14;24.02;;;13.45;;
70416;SDS011;57839;51.332;12.410;2023-02-03T03:59:46;20.92;;;12.35;;
70416;SDS011;57839;51.332;12.410;2023-02-03T04:02:12;21.85;;;12.63;;
70416;SDS011;57839;51.332;12.410;2023-02-03T04:04:39;41.10;;;23.20;;
70416;SDS011;57839;51.332;12.410;2023-02-03T04:07:05;40.45;;;23.13;;
70416;SDS011;57839;51.332;12.410;2023-02-03T04:09:30;22.40;;;12.88;;
70416;SDS011;57839;51.332;12.410;2023-02-03T04:11:56;23.35;;;13.13;;
70416;SDS011;57839;51.332;12.410;2023-02-03T04:14:30;22.38;;;13.02;;
70416;SDS011;57839;51.332;12.410;2023-02-03T04:16:58;20.90;;;12.93;;
70416;SDS011;57839;51.332;12.410;2023-02-03T04:19:24;21.50;;;12.75;;
70416;SDS011;57839;51.332;12.410;2023-02-03T04:21:49;23.65;;;13.48;;
70416;SDS011;57839;51.332;12.410;2023-02-03T04:24:15;19.15;;;12.10;;
70416;SDS011;57839;51.332;12.410;2023-02-03T04:26:40;23.15;;;13.68;;
70416;SDS011;57839;51.332;12.410;2023-02-03T04:29:06;22.83;;;14.10;;
70416;SDS011;57839;51.332;12.410;2023-02-03T04:31:31;21.55;;;13.75;;
70416;SDS011;57839;51.332;12.410;2023-02-03T04:33:58;22.02;;;13.52;;
70416;SDS011;57839;51.332;12.410;2023-02-03T04:36:23;20.77;;;12.98;;
70416;SDS011;57839;51.332;12.410;2023-02-03T04:38:49;21.00;;;12.48;;
70416;SDS011;57839;51.332;12.410;2023-02-03T04:41:15;21.88;;;12.30;;
70416;SDS011;57839;51.332;12.410;2023-02-03T04:43:41;22.90;;;13.50;;
70416;SDS011;57839;51.332;12.410;2023-02-03T04:46:06;23.92;;;13.52;;
70416;SDS011;57839;51.332;12.410;2023-02-03T04:48:32;22.73;;;12.90;;
70416;SDS011;57839;51.332;12.410;2023-02-03T04:51:00;19.63;;;13.02;;
70416;SDS011;57839;51.332;12.410;2023-02-03T04:53:28;20.42;;;12.07;;
70416;SDS011;57839;51.332;12.410;2023-02-03T04:55:54;21.33;;;12.93;;
70416;SDS011;57839;51.332;12.410;2023-02-03T04:58:20;22.38;;;13.65;;
70416;SDS011;57839;51.332;12.410;2023-02-03T05:00:45;19.42;;;12.65;;
70416;SDS011;57839;51.332;12.410;2023-02-03T05:03:11;19.60;;;13.00;;
70416;SDS011;57839;51.332;12.410;2023-02-03T05:05:36;19.85;;;12.30;;
70416;SDS011;57839;51.332;12.410;2023-02-03T05:08:02;21.92;;;12.95;;
70416;SDS011;57839;51.332;12.410;2023-02-03T05:10:27;21.67;;;13.18;;
70416;SDS011;57839;51.332;12.410;2023-02-03T05:12:53;20.73;;;12.52;;
70416;SDS011;57839;51.332;12.410;2023-02-03T05:15:18;22.58;;;12.13;;
70416;SDS011;57839;51.332;12.410;2023-02-03T05:17:44;20.45;;;13.32;;
70416;SDS011;57839;51.332;12.410;2023-02-03T05:20:10;20.00;;;12.60;;
70416;SDS011;57839;51.332;12.410;2023-02-03T05:22:35;21.60;;;12.63;;
70416;SDS011;57839;51.332;12.410;2023-02-03T05:25:01;19.90;;;13.02;;
70416;SDS011;57839;51.332;12.410;2023-02-03T05:27:28;20.77;;;13.00;;
70416;SDS011;57839;51.332;12.410;2023-02-03T05:29:53;17.77;;;11.15;;
70416;SDS011;57839;51.332;12.410;2023-02-03T05:32:19;19.15;;;12.35;;
70416;SDS011;57839;51.332;12.410;2023-02-03T05:34:44;16.13;;;10.73;;
70416;SDS011;57839;51.332;12.410;2023-02-03T05:37:10;20.13;;;10.98;;
70416;SDS011;57839;51.332;12.410;2023-02-03T05:39:35;16.70;;;10.75;;
70416;SDS011;57839;51.332;12.410;2023-02-03T05:42:01;17.80;;;12.07;;
70416;SDS011;57839;51.332;12.410;2023-02-03T05:44:28;14.07;;;10.00;;
70416;SDS011;57839;51.332;12.410;2023-02-03T05:46:54;16.25;;;10.45;;
70416;SDS011;57839;51.332;12.410;2023-02-03T05:49:21;16.33;;;10.48;;
70416;SDS011;57839;51.332;12.410;2023-02-03T05:51:47;16.50;;;10.40;;
70416;SDS011;57839;51.332;12.410;2023-02-03T05:54:14;13.48;;;9.50;;
70416;SDS011;57839;51.332;12.410;2023-02-03T05:56:40;14.40;;;9.68;;
70416;SDS011;57839;51.332;12.410;2023-02-03T05:59:05;17.52;;;9.50;;
70416;SDS011;57839;51.332;12.410;2023-02-03T06:01:31;12.88;;;8.85;;
70416;SDS011;57839;51.332;12.410;2023-02-03T06:03:57;13.15;;;8.93;;
70416;SDS011;57839;51.332;12.410;2023-02-03T06:06:23;13.55;;;9.20;;
70416;SDS011;57839;51.332;12.410;2023-02-03T06:08:48;14.07;;;9.40;;
70416;SDS011;57839;51.332;12.410;2023-02-03T06:11:16;14.18;;;10.02;;
70416;SDS011;57839;51.332;12.410;2023-02-03T06:13:42;12.75;;;8.85;;
70416;SDS011;57839;51.332;12.410;2023-02-03T06:16:07;13.38;;;9.13;;
70416;SDS011;57839;51.332;12.410;2023-02-03T06:18:33;15.45;;;9.45;;
70416;SDS011;57839;51.332;12.410;2023-02-03T06:20:58;13.73;;;8.93;;
70416;SDS011;57839;51.332;12.410;2023-02-03T06:23:24;13.90;;;9.02;;
70416;SDS011;57839;51.332;12.410;2023-02-03T06:25:50;13.52;;;10.35;;
70416;SDS011;57839;51.332;12.410;2023-02-03T06:28:16;14.38;;;9.60;;
70416;SDS011;57839;51.332;12.410;2023-02-03T06:30:41;13.65;;;9.18;;
70416;SDS011;57839;51.332;12.410;2023-02-03T06:33:07;15.18;;;10.35;;
70416;SDS011;57839;51.332;12.410;2023-02-03T06:35:33;14.27;;;9.82;;
70416;SDS011;57839;51.332;12.410;2023-02-03T06:37:58;13.93;;;9.57;;
70416;SDS011;57839;51.332;12.410;2023-02-03T06:40:24;15.80;;;10.13;;
70416;SDS011;57839;51.332;12.410;2023-02-03T06:42:49;11.65;;;9.25;;
70416;SDS011;57839;51.332;12.410;2023-02-03T06:45:15;13.68;;;8.98;;
70416;SDS011;57839;51.332;12.410;2023-02-03T06:47:42;13.60;;;8.65;;
70416;SDS011;57839;51.332;12.410;2023-02-03T06:50:08;12.93;;;8.73;;
70416;SDS011;57839;51.332;12.410;2023-02-03T06:52:39;11.95;;;7.82;;
70416;SDS011;57839;51.332;12.410;2023-02-03T06:55:05;11.77;;;8.50;;
70416;SDS011;57839;51.332;12.410;2023-02-03T06:57:32;11.73;;;7.78;;
70416;SDS011;57839;51.332;12.410;2023-02-03T06:59:57;14.50;;;8.10;;
70416;SDS011;57839;51.332;12.410;2023-02-03T07:02:23;10.25;;;7.72;;
70416;SDS011;57839;51.332;12.410;2023-02-03T07:04:49;12.05;;;7.93;;
70416;SDS011;57839;51.332;12.410;2023-02-03T07:07:15;10.32;;;7.88;;
70416;SDS011;57839;51.332;12.410;2023-02-03T07:09:41;11.35;;;7.82;;
70416;SDS011;57839;51.332;12.410;2023-02-03T07:12:07;10.93;;;7.85;;
70416;SDS011;57839;51.332;12.410;2023-02-03T07:14:32;10.38;;;6.80;;
70416;SDS011;57839;51.332;12.410;2023-02-03T07:17:03;10.07;;;7.18;;
70416;SDS011;57839;51.332;12.410;2023-02-03T07:19:29;10.38;;;6.90;;
70416;SDS011;57839;51.332;12.410;2023-02-03T07:21:54;10.85;;;7.00;;
70416;SDS011;57839;51.332;12.410;2023-02-03T07:24:20;10.10;;;6.68;;
70416;SDS011;57839;51.332;12.410;2023-02-03T07:26:46;8.05;;;6.53;;
70416;SDS011;57839;51.332;12.410;2023-02-03T07:29:11;10.02;;;6.85;;
70416;SDS011;57839;51.332;12.410;2023-02-03T07:31:37;15.88;;;8.43;;
70416;SDS011;57839;51.332;12.410;2023-02-03T07:34:03;9.63;;;6.78;;
70416;SDS011;57839;51.332;12.410;2023-02-03T07:36:29;9.90;;;6.78;;
70416;SDS011;57839;51.332;12.410;2023-02-03T07:38:54;9.50;;;6.47;;
70416;SDS011;57839;51.332;12.410;2023-02-03T07:41:20;9.10;;;6.65;;
70416;SDS011;57839;51.332;12.410;2023-02-03T07:43:46;12.75;;;6.32;;
70416;SDS011;57839;51.332;12.410;2023-02-03T07:46:12;8.60;;;6.18;;
70416;SDS011;57839;51.332;12.410;2023-02-03T07:48:37;9.43;;;6.35;;
70416;SDS011;57839;51.332;12.410;2023-02-03T07:51:03;9.35;;;6.95;;
70416;SDS011;57839;51.332;12.410;2023-02-03T07:53:29;9.18;;;6.70;;
70416;SDS011;57839;51.332;12.410;2023-02-03T07:55:58;11.00;;;6.78;;
70416;SDS011;57839;51.332;12.410;2023-02-03T07:58:27;10.15;;;7.03;;
70416;SDS011;57839;51.332;12.410;2023-02-03T08:00:53;9.90;;;7.00;;
70416;SDS011;57839;51.332;12.410;2023-02-03T08:03:19;9.18;;;6.43;;
70416;SDS011;57839;51.332;12.410;2023-02-03T08:05:45;9.20;;;7.15;;
70416;SDS011;57839;51.332;12.410;2023-02-03T08:08:11;11.18;;;7.32;;
70416;SDS011;57839;51.332;12.410;2023-02-03T08:10:37;10.63;;;7.10;;
70416;SDS011;57839;51.332;12.410;2023-02-03T08:13:02;12.38;;;7.78;;
70416;SDS011;57839;51.332;12.410;2023-02-03T08:15:28;8.10;;;6.72;;
70416;SDS011;57839;51.332;12.410;2023-02-03T08:17:53;9.02;;;6.38;;
70416;SDS011;57839;51.332;12.410;2023-02-03T08:20:19;9.57;;;6.82;;
70416;SDS011;57839;51.332;12.410;2023-02-03T08:22:44;11.82;;;7.05;;
70416;SDS011;57839;51.332;12.410;2023-02-03T08:25:10;9.75;;;6.55;;
70416;SDS011;57839;51.332;12.410;2023-02-03T08:27:37;8.93;;;6.47;;
70416;SDS011;57839;51.332;12.410;2023-02-03T08:30:02;7.85;;;5.78;;
70416;SDS011;57839;51.332;12.410;2023-02-03T08:32:28;8.85;;;5.78;;
70416;SDS011;57839;51.332;12.410;2023-02-03T08:34:54;9.68;;;5.70;;
70416;SDS011;57839;51.332;12.410;2023-02-03T08:37:21;7.90;;;6.20;;
70416;SDS011;57839;51.332;12.410;2023-02-03T08:39:51;9.38;;;5.97;;
70416;SDS011;57839;51.332;12.410;2023-02-03T08:42:17;7.22;;;5.50;;
70416;SDS011;57839;51.332;12.410;2023-02-03T08:44:42;8.40;;;5.10;;
70416;SDS011;57839;51.332;12.410;2023-02-03T08:47:08;9.27;;;5.63;;
70416;SDS011;57839;51.332;12.410;2023-02-03T08:49:34;7.97;;;5.57;;
70416;SDS011;57839;51.332;12.410;2023-02-03T08:52:03;8.85;;;5.68;;
70416;SDS011;57839;51.332;12.410;2023-02-03T08:54:30;7.43;;;5.40;;
70416;SDS011;57839;51.332;12.410;2023-02-03T08:56:57;7.38;;;5.30;;
70416;SDS011;57839;51.332;12.410;2023-02-03T08:59:23;7.63;;;5.50;;
70416;SDS011;57839;51.332;12.410;2023-02-03T09:01:48;7.40;;;5.25;;
70416;SDS011;57839;51.332;12.410;2023-02-03T09:04:15;9.57;;;5.45;;
70416;SDS011;57839;51.332;12.410;2023-02-03T09:09:14;7.88;;;5.32;;
70416;SDS011;57839;51.332;12.410;2023-02-03T09:11:40;8.80;;;5.18;;
70416;SDS011;57839;51.332;12.410;2023-02-03T09:14:06;7.95;;;5.20;;
70416;SDS011;57839;51.332;12.410;2023-02-03T09:16:32;6.93;;;5.60;;
70416;SDS011;57839;51.332;12.410;2023-02-03T09:18:58;6.97;;;5.50;;
70416;SDS011;57839;51.332;12.410;2023-02-03T09:21:23;8.82;;;5.85;;
70416;SDS011;57839;51.332;12.410;2023-02-03T09:23:49;6.95;;;5.72;;
70416;SDS011;57839;51.332;12.410;2023-02-03T09:26:15;11.80;;;5.45;;
70416;SDS011;57839;51.332;12.410;2023-02-03T09:28:41;9.35;;;6.05;;
70416;SDS011;57839;51.332;12.410;2023-02-03T09:31:07;7.97;;;4.63;;
70416;SDS011;57839;51.332;12.410;2023-02-03T09:33:37;6.07;;;4.60;;
70416;SDS011;57839;51.332;12.410;2023-02-03T09:36:04;8.15;;;4.70;;
70416;SDS011;57839;51.332;12.410;2023-02-03T09:38:30;5.57;;;4.55;;
70416;SDS011;57839;51.332;12.410;2023-02-03T09:43:34;6.20;;;5.00;;
70416;SDS011;57839;51.332;12.410;2023-02-03T09:46:05;6.40;;;4.00;;
70416;SDS011;57839;51.332;12.410;2023-02-03T09:48:53;5.07;;;4.30;;
70416;SDS011;57839;51.332;12.410;2023-02-03T09:51:28;6.57;;;3.80;;
70416;SDS011;57839;51.332;12.410;2023-02-03T09:54:20;8.07;;;4.10;;
70416;SDS011;57839;51.332;12.410;2023-02-03T09:56:52;7.53;;;3.88;;
70416;SDS011;57839;51.332;12.410;2023-02-03T09:59:20;5.03;;;3.50;;
70416;SDS011;57839;51.332;12.410;2023-02-03T10:06:59;4.30;;;3.22;;
70416;SDS011;57839;51.332;12.410;2023-02-03T10:09:43;4.97;;;3.67;;
70416;SDS011;57839;51.332;12.410;2023-02-03T10:15:25;4.88;;;3.40;;
70416;SDS011;57839;51.332;12.410;2023-02-03T10:18:26;4.03;;;3.22;;
70416;SDS011;57839;51.332;12.410;2023-02-03T10:20:58;7.93;;;3.35;;
70416;SDS011;57839;51.332;12.410;2023-02-03T10:23:46;6.95;;;3.60;;
70416;SDS011;57839;51.332;12.410;2023-02-03T10:26:17;4.45;;;3.30;;
70416;SDS011;57839;51.332;12.410;2023-02-03T10:28:55;5.67;;;3.23;;
70416;SDS011;57839;51.332;12.410;2023-02-03T10:31:23;5.70;;;3.38;;
70416;SDS011;57839;51.332;12.410;2023-02-03T10:34:10;4.63;;;3.00;;
70416;SDS011;57839;51.332;12.410;2023-02-03T10:42:06;3.95;;;2.92;;
70416;SDS011;57839;51.332;12.410;2023-02-03T10:44:37;3.80;;;3.22;;
70416;SDS011;57839;51.332;12.410;2023-02-03T10:47:22;4.50;;;3.28;;
70416;SDS011;57839;51.332;12.410;2023-02-03T10:49:53;4.10;;;3.35;;
70416;SDS011;57839;51.332;12.410;2023-02-03T10:52:24;5.30;;;3.20;;
70416;SDS011;57839;51.332;12.410;2023-02-03T10:54:53;4.07;;;3.42;;
70416;SDS011;57839;51.332;12.410;2023-02-03T10:57:20;4.13;;;3.70;;
70416;SDS011;57839;51.332;12.410;2023-02-03T10:59:47;5.38;;;3.60;;
70416;SDS011;57839;51.332;12.410;2023-02-03T11:02:24;6.60;;;3.70;;
70416;SDS011;57839;51.332;12.410;2023-02-03T11:07:49;4.55;;;3.40;;
70416;SDS011;57839;51.332;12.410;2023-02-03T11:10:37;6.00;;;3.90;;
70416;SDS011;57839;51.332;12.410;2023-02-03T11:13:18;6.47;;;3.78;;
70416;SDS011;57839;51.332;12.410;2023-02-03T11:15:52;4.03;;;3.25;;
70416;SDS011;57839;51.332;12.410;2023-02-03T11:18:26;5.43;;;3.72;;
70416;SDS011;57839;51.332;12.410;2023-02-03T11:21:28;6.45;;;3.63;;
70416;SDS011;57839;51.332;12.410;2023-02-03T11:24:19;5.07;;;3.25;;
70416;SDS011;57839;51.332;12.410;2023-02-03T11:26:48;5.38;;;3.10;;
70416;SDS011;57839;51.332;12.410;2023-02-03T11:29:17;4.40;;;3.45;;
70416;SDS011;57839;51.332;12.410;2023-02-03T11:31:46;5.75;;;3.30;;
70416;SDS011;57839;51.332;12.410;2023-02-03T11:34:18;4.28;;;3.00;;
70416;SDS011;57839;51.332;12.410;2023-02-03T11:36:50;5.47;;;4.97;;
70416;SDS011;57839;51.332;12.410;2023-02-03T11:39:18;3.35;;;3.05;;
70416;SDS011;57839;51.332;12.410;2023-02-03T11:41:45;4.28;;;3.13;;
70416;SDS011;57839;51.332;12.410;2023-02-03T11:44:32;4.00;;;3.22;;
70416;SDS011;57839;51.332;12.410;2023-02-03T11:47:06;6.00;;;3.42;;
70416;SDS011;57839;51.332;12.410;2023-02-03T11:49:38;4.50;;;3.30;;
70416;SDS011;57839;51.332;12.410;2023-02-03T11:52:20;4.72;;;3.20;;
70416;SDS011;57839;51.332;12.410;2023-02-03T11:55:04;4.75;;;3.10;;
70416;SDS011;57839;51.332;12.410;2023-02-03T11:57:49;5.03;;;3.47;;
70416;SDS011;57839;51.332;12.410;2023-02-03T12:03:48;5.20;;;3.47;;
70416;SDS011;57839;51.332;12.410;2023-02-03T12:17:04;3.45;;;3.08;;
70416;SDS011;57839;51.332;12.410;2023-02-03T12:19:59;3.60;;;3.28;;
70416;SDS011;57839;51.332;12.410;2023-02-03T12:28:08;4.35;;;2.63;;
70416;SDS011;57839;51.332;12.410;2023-02-03T12:30:38;3.28;;;2.60;;
70416;SDS011;57839;51.332;12.410;2023-02-03T12:38:52;3.90;;;2.28;;
70416;SDS011;57839;51.332;12.410;2023-02-03T12:41:17;3.88;;;2.50;;
70416;SDS011;57839;51.332;12.410;2023-02-03T12:43:47;3.92;;;2.83;;
70416;SDS011;57839;51.332;12.410;2023-02-03T12:51:37;2.90;;;2.13;;
70416;SDS011;57839;51.332;12.410;2023-02-03T12:54:27;2.72;;;2.25;;
70416;SDS011;57839;51.332;12.410;2023-02-03T12:56:54;2.92;;;2.10;;
70416;SDS011;57839;51.332;12.410;2023-02-03T12:59:24;2.60;;;2.22;;
70416;SDS011;57839;51.332;12.410;2023-02-03T13:01:53;3.40;;;2.00;;
70416;SDS011;57839;51.332;12.410;2023-02-03T13:13:01;7.60;;;2.22;;
70416;SDS011;57839;51.332;12.410;2023-02-03T13:18:30;5.40;;;1.80;;
70416;SDS011;57839;51.332;12.410;2023-02-03T13:20:58;10.38;;;2.55;;
70416;SDS011;57839;51.332;12.410;2023-02-03T13:23:23;7.88;;;2.20;;
70416;SDS011;57839;51.332;12.410;2023-02-03T13:39:31;10.20;;;2.85;;
70416;SDS011;57839;51.332;12.410;2023-02-03T13:42:20;12.57;;;2.50;;
70416;SDS011;57839;51.332;12.410;2023-02-03T13:44:48;9.15;;;2.60;;
70416;SDS011;57839;51.332;12.410;2023-02-03T13:47:17;9.50;;;2.70;;
70416;SDS011;57839;51.332;12.410;2023-02-03T13:49:48;9.75;;;3.13;;
70416;SDS011;57839;51.332;12.410;2023-02-03T13:52:24;14.60;;;3.15;;
70416;SDS011;57839;51.332;12.410;2023-02-03T13:55:06;14.38;;;3.67;;
70416;SDS011;57839;51.332;12.410;2023-02-03T13:57:36;13.98;;;3.10;;
70416;SDS011;57839;51.332;12.410;2023-02-03T14:00:04;10.38;;;2.45;;
70416;SDS011;57839;51.332;12.410;2023-02-03T14:02:41;12.60;;;2.92;;
70416;SDS011;57839;51.332;12.410;2023-02-03T14:05:36;13.65;;;3.28;;
70416;SDS011;57839;51.332;12.410;2023-02-03T14:16:38;7.45;;;1.98;;
70416;SDS011;57839;51.332;12.410;2023-02-03T14:22:03;8.85;;;2.65;;
70416;SDS011;57839;51.332;12.410;2023-02-03T14:24:30;10.05;;;2.80;;
70416;SDS011;57839;51.332;12.410;2023-02-03T14:26:58;8.88;;;2.92;;
70416;SDS011;57839;51.332;12.410;2023-02-03T14:29:27;11.43;;;3.22;;
70416;SDS011;57839;51.332;12.410;2023-02-03T14:31:55;11.88;;;3.00;;
70416;SDS011;57839;51.332;12.410;2023-02-03T14:36:53;11.70;;;3.20;;
70416;SDS011;57839;51.332;12.410;2023-02-03T14:44:38;9.68;;;3.10;;
70416;SDS011;57839;51.332;12.410;2023-02-03T14:50:07;14.23;;;3.75;;
70416;SDS011;57839;51.332;12.410;2023-02-03T14:58:32;12.20;;;3.95;;
70416;SDS011;57839;51.332;12.410;2023-02-03T15:01:02;14.90;;;3.22;;
70416;SDS011;57839;51.332;12.410;2023-02-03T15:03:29;12.73;;;3.65;;
70416;SDS011;57839;51.332;12.410;2023-02-03T15:06:02;19.38;;;4.18;;
70416;SDS011;57839;51.332;12.410;2023-02-03T15:13:52;14.10;;;3.65;;
70416;SDS011;57839;51.332;12.410;2023-02-03T15:16:20;19.88;;;4.22;;
70416;SDS011;57839;51.332;12.410;2023-02-03T15:18:57;11.77;;;3.13;;
70416;SDS011;57839;51.332;12.410;2023-02-03T15:21:24;12.13;;;4.60;;
70416;SDS011;57839;51.332;12.410;2023-02-03T15:23:49;12.68;;;3.50;;
70416;SDS011;57839;51.332;12.410;2023-02-03T15:26:20;12.73;;;3.75;;
70416;SDS011;57839;51.332;12.410;2023-02-03T15:29:01;13.13;;;3.28;;
70416;SDS011;57839;51.332;12.410;2023-02-03T15:31:29;19.60;;;4.55;;
70416;SDS011;57839;51.332;12.410;2023-02-03T15:33:59;12.40;;;3.67;;
70416;SDS011;57839;51.332;12.410;2023-02-03T15:36:51;16.50;;;4.30;;
70416;SDS011;57839;51.332;12.410;2023-02-03T15:39:36;14.82;;;4.10;;
70416;SDS011;57839;51.332;12.410;2023-02-03T15:42:22;10.55;;;3.42;;
70416;SDS011;57839;51.332;12.410;2023-02-03T15:47:27;18.13;;;4.03;;
70416;SDS011;57839;51.332;12.410;2023-02-03T15:50:09;18.42;;;3.70;;
70416;SDS011;57839;51.332;12.410;2023-02-03T15:52:48;13.45;;;3.35;;
70416;SDS011;57839;51.332;12.410;2023-02-03T15:55:22;13.80;;;2.97;;
70416;SDS011;57839;51.332;12.410;2023-02-03T15:57:54;16.90;;;3.90;;
70416;SDS011;57839;51.332;12.410;2023-02-03T16:02:50;12.80;;;3.40;;
70416;SDS011;57839;51.332;12.410;2023-02-03T16:05:24;20.25;;;3.92;;
70416;SDS011;57839;51.332;12.410;2023-02-03T16:07:51;13.95;;;4.07;;
70416;SDS011;57839;51.332;12.410;2023-02-03T16:10:24;16.85;;;3.67;;
70416;SDS011;57839;51.332;12.410;2023-02-03T16:13:09;13.60;;;3.63;;
70416;SDS011;57839;51.332;12.410;2023-02-03T16:18:32;15.07;;;3.47;;
70416;SDS011;57839;51.332;12.410;2023-02-03T16:21:00;12.85;;;3.30;;
70416;SDS011;57839;51.332;12.410;2023-02-03T16:23:26;12.93;;;3.47;;
70416;SDS011;57839;51.332;12.410;2023-02-03T16:26:27;12.93;;;3.22;;
70416;SDS011;57839;51.332;12.410;2023-02-03T16:31:46;10.57;;;3.17;;
70416;SDS011;57839;51.332;12.410;2023-02-03T16:34:30;14.38;;;3.10;;
70416;SDS011;57839;51.332;12.410;2023-02-03T16:40:09;14.82;;;3.42;;
70416;SDS011;57839;51.332;12.410;2023-02-03T16:42:54;11.07;;;3.35;;
70416;SDS011;57839;51.332;12.410;2023-02-03T16:45:37;16.55;;;3.45;;
70416;SDS011;57839;51.332;12.410;2023-02-03T16:48:21;10.98;;;3.15;;
70416;SDS011;57839;51.332;12.410;2023-02-03T16:51:09;14.63;;;2.95;;
70416;SDS011;57839;51.332;12.410;2023-02-03T16:53:37;17.85;;;3.78;;
70416;SDS011;57839;51.332;12.410;2023-02-03T16:56:03;13.95;;;3.65;;
70416;SDS011;57839;51.332;12.410;2023-02-03T16:58:29;13.52;;;4.43;;
70416;SDS011;57839;51.332;12.410;2023-02-03T17:00:56;13.65;;;3.00;;
70416;SDS011;57839;51.332;12.410;2023-02-03T17:03:24;15.07;;;2.92;;
70416;SDS011;57839;51.332;12.410;2023-02-03T17:05:51;16.63;;;3.53;;
70416;SDS011;57839;51.332;12.410;2023-02-03T17:08:18;14.98;;;3.08;;
70416;SDS011;57839;51.332;12.410;2023-02-03T17:10:45;16.00;;;3.28;;